Time;durP1;ratioP1;P1;durP2;ratioP2;P2;SDS_P1;SDS_P2;PMS_P1;PMS_P2;Temp;Humidity;BMP_temperature;BMP_pressure;BME280_temperature;BME280_humidity;BME280_pressure;Samples;Min_cycle;Max_cycle;Signal;HPM_P1;HPM_P2
2023/05/13 00:01:03;;;;;;;3.87;3.00;;;10.70;99.90;;;;;;5110018;28;20467;-75
2023/05/13 00:03:29;;;;;;;3.33;3.03;;;10.70;99.90;;;;;;5109723;28;20441;-75
2023/05/13 00:05:55;;;;;;;3.05;2.75;;;10.70;99.90;;;;;;5093705;28;20582;-75
2023/05/13 00:08:21;;;;;;;3.70;3.30;;;10.70;99.90;;;;;;5089557;28;20390;-75
2023/05/13 00:10:46;;;;;;;3.60;3.30;;;10.70;99.90;;;;;;5098210;28;20385;-75
2023/05/13 00:13:12;;;;;;;5.70;3.75;;;10.70;99.90;;;;;;5113886;28;20487;-75
2023/05/13 00:15:37;;;;;;;4.43;3.50;;;10.70;99.90;;;;;;5112783;28;20384;-75
2023/05/13 00:18:03;;;;;;;3.37;3.10;;;10.70;99.90;;;;;;5091554;28;21086;-76
2023/05/13 00:20:28;;;;;;;4.28;3.88;;;10.60;99.90;;;;;;5113793;28;20475;-76
2023/05/13 00:22:54;;;;;;;4.07;3.67;;;10.70;99.90;;;;;;5114002;28;20381;-75
2023/05/13 00:25:20;;;;;;;4.38;3.60;;;10.70;99.90;;;;;;5112907;28;20407;-75
2023/05/13 00:27:45;;;;;;;3.67;3.37;;;10.70;99.90;;;;;;5113079;28;20407;-75
2023/05/13 00:30:11;;;;;;;4.10;3.70;;;10.60;99.90;;;;;;5113576;28;20386;-76
2023/05/13 00:32:36;;;;;;;3.70;3.40;;;10.60;99.90;;;;;;5112079;28;20389;-75
2023/05/13 00:35:02;;;;;;;3.85;3.55;;;10.70;99.90;;;;;;5112980;28;20380;-75
2023/05/13 00:37:28;;;;;;;3.80;3.50;;;10.60;99.90;;;;;;5113195;28;20392;-75
2023/05/13 00:39:53;;;;;;;4.22;3.70;;;10.60;99.90;;;;;;5113526;28;20373;-75
2023/05/13 00:42:19;;;;;;;4.50;3.50;;;10.60;99.90;;;;;;5109547;28;20384;-76
2023/05/13 00:44:44;;;;;;;4.60;4.20;;;10.60;99.90;;;;;;5113138;28;20886;-75
2023/05/13 00:47:11;;;;;;;3.80;3.50;;;10.50;99.90;;;;;;5112268;28;20906;-76
2023/05/13 00:49:36;;;;;;;4.70;4.30;;;10.60;99.90;;;;;;5113248;28;20429;-76
2023/05/13 00:52:03;;;;;;;6.57;4.20;;;10.60;99.90;;;;;;5113621;28;20455;-75
2023/05/13 00:54:28;;;;;;;5.28;4.25;;;10.60;99.90;;;;;;5095281;28;20395;-75
2023/05/13 00:56:57;;;;;;;5.57;4.55;;;10.60;99.90;;;;;;5111702;28;20377;-75
2023/05/13 00:59:24;;;;;;;4.28;3.95;;;10.70;99.90;;;;;;5104882;28;20411;-75
2023/05/13 01:02:14;;;;;;;5.00;4.60;;;10.70;99.90;;;;;;5112815;28;20816;-76
2023/05/13 01:04:42;;;;;;;5.00;4.50;;;10.60;99.90;;;;;;5108005;28;20405;-76
2023/05/13 01:07:16;;;;;;;5.13;4.55;;;10.70;99.90;;;;;;5108564;28;20514;-76
2023/05/13 01:10:17;;;;;;;6.03;4.78;;;10.50;99.90;;;;;;5113017;28;20469;-76
2023/05/13 01:12:46;;;;;;;5.63;5.13;;;10.50;99.90;;;;;;5112981;28;20381;-76
2023/05/13 01:15:17;;;;;;;4.72;4.20;;;10.50;99.90;;;;;;5111830;28;20380;-75
2023/05/13 01:18:04;;;;;;;4.88;4.25;;;10.50;99.90;;;;;;5111938;28;20882;-76
2023/05/13 01:20:30;;;;;;;4.15;3.75;;;10.50;99.90;;;;;;5112330;28;20517;-76
2023/05/13 01:22:56;;;;;;;5.40;4.40;;;10.50;99.90;;;;;;5093986;28;20488;-76
2023/05/13 01:25:22;;;;;;;4.70;4.20;;;10.50;99.90;;;;;;5104629;28;20421;-75
2023/05/13 01:27:48;;;;;;;7.15;4.38;;;10.40;99.90;;;;;;5111877;28;20407;-75
2023/05/13 01:30:14;;;;;;;4.97;4.30;;;10.40;99.90;;;;;;5111903;28;20415;-75
2023/05/13 01:32:40;;;;;;;5.40;4.90;;;10.40;99.90;;;;;;5112428;28;20373;-75
2023/05/13 01:35:07;;;;;;;5.40;4.43;;;10.50;99.90;;;;;;5111795;28;20445;-76
2023/05/13 01:37:35;;;;;;;6.70;4.30;;;10.50;99.90;;;;;;5111502;28;20411;-76
2023/05/13 01:40:00;;;;;;;5.45;4.53;;;10.50;99.90;;;;;;5112108;28;20397;-76
2023/05/13 01:42:28;;;;;;;5.10;4.25;;;10.50;99.90;;;;;;5112346;28;20510;-75
2023/05/13 01:44:54;;;;;;;5.50;4.60;;;10.50;99.90;;;;;;5092996;28;20786;-76
2023/05/13 01:47:19;;;;;;;4.70;4.20;;;10.60;99.90;;;;;;5111466;28;20384;-75
2023/05/13 01:49:45;;;;;;;5.33;4.10;;;10.40;99.90;;;;;;5093948;28;20380;-75
2023/05/13 01:52:11;;;;;;;5.47;4.53;;;10.50;99.90;;;;;;5112042;28;20385;-76
2023/05/13 01:54:36;;;;;;;4.90;4.40;;;10.50;99.90;;;;;;5111753;28;20757;-74
2023/05/13 01:57:02;;;;;;;5.63;4.33;;;10.50;99.90;;;;;;5110979;28;20881;-75
2023/05/13 01:59:27;;;;;;;5.50;5.00;;;10.50;99.90;;;;;;5111927;28;20897;-75
2023/05/13 02:01:53;;;;;;;5.10;4.60;;;10.50;99.90;;;;;;5111221;28;20388;-75
2023/05/13 02:04:18;;;;;;;5.07;4.57;;;10.50;99.90;;;;;;5111839;28;20376;-75
2023/05/13 02:06:44;;;;;;;7.40;5.10;;;10.50;99.90;;;;;;5111019;28;20372;-75
2023/05/13 02:09:10;;;;;;;5.40;4.90;;;10.60;99.90;;;;;;5111521;28;21136;-75
2023/05/13 02:11:35;;;;;;;5.35;4.85;;;10.60;99.90;;;;;;5111512;28;20388;-75
2023/05/13 02:14:01;;;;;;;5.50;4.47;;;10.60;99.90;;;;;;5111670;28;20408;-76
2023/05/13 02:16:26;;;;;;;5.40;4.63;;;10.60;99.90;;;;;;5110853;28;20384;-75
2023/05/13 02:18:52;;;;;;;5.70;5.10;;;10.60;99.90;;;;;;5112232;28;20400;-75
2023/05/13 02:21:17;;;;;;;9.48;8.05;;;10.50;99.90;;;;;;5111764;28;20411;-76
2023/05/13 02:23:43;;;;;;;5.15;4.65;;;10.70;99.90;;;;;;5111099;28;20445;-75
2023/05/13 02:26:08;;;;;;;5.20;4.80;;;10.60;99.90;;;;;;5110529;28;20438;-75
2023/05/13 02:28:34;;;;;;;7.60;4.90;;;10.60;99.90;;;;;;5093216;28;20381;-75
2023/05/13 02:31:00;;;;;;;4.97;4.57;;;10.70;99.90;;;;;;5093247;28;20387;-76
2023/05/13 02:33:26;;;;;;;8.18;6.20;;;10.70;99.90;;;;;;5110716;28;20463;-76
2023/05/13 02:35:51;;;;;;;10.38;6.53;;;10.60;99.90;;;;;;5110111;28;20888;-75
2023/05/13 02:38:17;;;;;;;8.23;6.40;;;11.00;99.90;;;;;;5092809;28;20392;-76
2023/05/13 02:40:43;;;;;;;8.50;7.13;;;10.80;99.90;;;;;;5111040;28;20781;-75
2023/05/13 02:43:08;;;;;;;7.05;6.38;;;11.10;99.90;;;;;;5108303;28;20384;-75
2023/05/13 02:45:34;;;;;;;7.97;5.60;;;10.70;99.90;;;;;;5110008;28;20420;-76
2023/05/13 02:47:59;;;;;;;5.60;5.10;;;10.70;99.90;;;;;;5110927;28;20933;-76
2023/05/13 02:50:25;;;;;;;6.10;4.90;;;10.80;99.90;;;;;;5111159;28;20566;-76
2023/05/13 02:52:51;;;;;;;5.30;4.90;;;10.80;99.90;;;;;;5110913;28;20392;-75
2023/05/13 02:55:16;;;;;;;5.53;4.80;;;10.80;99.90;;;;;;5110763;28;20416;-75
2023/05/13 02:57:42;;;;;;;5.22;4.80;;;10.70;99.90;;;;;;5110271;28;20876;-76
2023/05/13 03:00:10;;;;;;;5.13;4.72;;;10.80;99.90;;;;;;5110957;28;20388;-76
2023/05/13 03:02:36;;;;;;;4.97;4.22;;;10.70;99.90;;;;;;5110423;28;20453;-76
2023/05/13 03:05:02;;;;;;;6.00;4.65;;;10.60;99.90;;;;;;5110935;28;20479;-75
2023/05/13 03:07:28;;;;;;;5.13;4.63;;;10.60;99.90;;;;;;5110098;28;20380;-75
2023/05/13 03:09:53;;;;;;;4.90;4.40;;;10.60;99.90;;;;;;5110983;28;20380;-76
2023/05/13 03:12:19;;;;;;;4.85;4.38;;;10.70;99.90;;;;;;5110384;28;20808;-77
2023/05/13 03:14:45;;;;;;;5.22;4.50;;;10.60;99.90;;;;;;5110917;28;20414;-75
2023/05/13 03:17:11;;;;;;;5.05;4.40;;;10.60;99.90;;;;;;5109544;28;20388;-75
2023/05/13 03:19:37;;;;;;;7.10;4.40;;;10.70;99.90;;;;;;5110764;28;20750;-75
2023/05/13 03:22:03;;;;;;;6.47;4.80;;;10.70;99.90;;;;;;5110097;28;20388;-76
2023/05/13 03:24:29;;;;;;;6.50;4.13;;;10.70;99.90;;;;;;5110602;28;20403;-76
2023/05/13 03:26:55;;;;;;;4.63;4.22;;;10.70;99.90;;;;;;5091233;28;20389;-76
2023/05/13 03:29:21;;;;;;;4.65;4.25;;;10.60;99.90;;;;;;5110617;28;20372;-76
2023/05/13 03:31:47;;;;;;;4.50;4.10;;;10.70;99.90;;;;;;5110708;28;20763;-76
2023/05/13 03:34:13;;;;;;;5.35;4.65;;;10.70;99.90;;;;;;5110590;28;20377;-76
2023/05/13 03:36:38;;;;;;;5.80;5.10;;;10.70;99.90;;;;;;5109747;28;20923;-76
2023/05/13 03:39:04;;;;;;;4.03;3.73;;;10.80;99.90;;;;;;5110751;28;20369;-76
2023/05/13 03:41:29;;;;;;;4.82;4.43;;;10.70;99.90;;;;;;5110709;28;20380;-76
2023/05/13 03:43:55;;;;;;;5.53;4.40;;;10.80;99.90;;;;;;5110230;28;20379;-76
2023/05/13 03:46:21;;;;;;;4.70;4.30;;;10.80;99.90;;;;;;5093230;22;20450;-81
2023/05/13 03:48:56;;;;;;;4.15;3.85;;;13.80;99.90;;;;;;5081168;28;20433;-79
2023/05/13 03:51:51;;;;;;;4.60;4.20;;;12.80;99.90;;;;;;5077167;28;20819;-79
2023/05/13 03:54:19;;;;;;;4.70;4.30;;;10.20;99.90;;;;;;5057644;28;20386;-79
2023/05/13 03:57:20;;;;;;;4.60;4.10;;;11.80;99.90;;;;;;5058592;28;20377;-79
2023/05/13 04:00:03;;;;;;;4.50;4.10;;;10.80;99.90;;;;;;5055343;28;20380;-79
2023/05/13 04:02:55;;;;;;;4.35;3.95;;;12.00;99.90;;;;;;5052704;28;20779;-79
2023/05/13 04:05:21;;;;;;;4.78;4.38;;;10.80;99.90;;;;;;5011891;28;20500;-79
2023/05/13 04:07:46;;;;;;;4.50;4.10;;;10.70;99.90;;;;;;5034052;28;20387;-79
2023/05/13 04:10:15;;;;;;;4.57;4.17;;;12.40;99.90;;;;;;5034241;28;20904;-79
2023/05/13 04:12:43;;;;;;;5.30;4.80;;;10.80;99.90;;;;;;5033956;28;20394;-79
2023/05/13 04:15:27;;;;;;;4.50;4.10;;;10.90;99.90;;;;;;5046401;28;20407;-79
2023/05/13 04:17:52;;;;;;;4.80;4.40;;;11.30;99.90;;;;;;5034286;28;20414;-79
2023/05/13 04:20:18;;;;;;;4.50;4.10;;;9.20;99.90;;;;;;5041904;28;20395;-79
2023/05/13 04:22:47;;;;;;;5.40;4.70;;;12.60;99.90;;;;;;5041188;28;20481;-79
2023/05/13 04:25:23;;;;;;;4.63;4.13;;;10.80;99.90;;;;;;5033989;28;20413;-79
2023/05/13 04:27:49;;;;;;;4.80;4.40;;;11.40;99.90;;;;;;5049398;28;20401;-79
2023/05/13 04:30:28;;;;;;;4.80;4.28;;;11.10;99.90;;;;;;5047757;28;20399;-79
2023/05/13 04:32:59;;;;;;;4.20;3.80;;;12.00;99.90;;;;;;5035356;28;20792;-79
2023/05/13 04:39:30;;;;;;;;;;;;;;;;;;;;;
2023/05/13 04:42:28;;;;;;;4.50;4.20;;;11.30;99.90;;;;;;4991739;28;20933;-79
2023/05/13 04:48:16;;;;;;;5.72;3.63;;;11.40;99.90;;;;;;4969041;28;20391;-78
2023/05/13 04:51:39;;;;;;;5.10;4.10;;;13.30;99.90;;;;;;5004265;28;20381;-79
2023/05/13 04:54:34;;;;;;;4.22;3.85;;;11.30;99.90;;;;;;5056593;28;20910;-79
2023/05/13 04:57:02;;;;;;;6.23;3.90;;;11.00;99.90;;;;;;5052997;28;20511;-79
2023/05/13 05:00:10;;;;;;;5.47;4.18;;;11.10;99.90;;;;;;5050677;28;20430;-79
2023/05/13 05:06:30;;;;;;;4.60;4.20;;;10.90;99.90;;;;;;5051858;28;20420;-79
2023/05/13 05:09:30;;;;;;;4.43;4.03;;;11.40;99.90;;;;;;5044789;28;20394;-79
2023/05/13 05:12:30;;;;;;;;;;;;;;;;;;;;;
2023/05/13 05:19:05;;;;;;;;;;;;;;;;;;;;;
2023/05/13 05:26:23;;;;;;;5.55;5.05;;;11.10;99.90;;;;;;5028931;28;20405;-80
2023/05/13 05:32:54;;;;;;;5.00;4.40;;;11.50;99.90;;;;;;4976655;28;20478;-78
2023/05/13 05:43:12;;;;;;;;;;;;;;;;;;;;;
2023/05/13 05:46:10;;;;;;;;;;;;;;;;;;;;;
2023/05/13 05:48:53;;;;;;;5.85;4.05;;;11.50;99.90;;;;;;4917212;29;20466;-79
2023/05/13 05:51:50;;;;;;;4.32;3.92;;;11.10;99.90;;;;;;4954444;29;20402;-79
2023/05/13 05:54:29;;;;;;;4.78;4.28;;;11.60;99.90;;;;;;4959685;28;20404;-78
2023/05/13 05:57:35;;;;;;;4.18;3.78;;;11.60;99.90;;;;;;4963881;28;20436;-78
2023/05/13 06:00:59;;;;;;;5.65;4.55;;;11.50;99.90;;;;;;5025013;28;20385;-78
2023/05/13 06:07:38;;;;;;;4.10;3.80;;;11.80;99.90;;;;;;5012482;28;20453;-78
2023/05/13 06:10:37;;;;;;;4.20;3.90;;;11.20;99.90;;;;;;5006712;28;20383;-78
2023/05/13 06:13:50;;;;;;;4.40;4.10;;;11.50;99.90;;;;;;5031745;28;20411;-78
2023/05/13 06:16:28;;;;;;;4.55;4.15;;;11.50;99.90;;;;;;5028609;28;20468;-78
2023/05/13 06:18:59;;;;;;;5.05;4.55;;;11.50;99.90;;;;;;5051736;28;20404;-78
2023/05/13 06:21:25;;;;;;;6.10;5.60;;;12.90;99.90;;;;;;5031378;28;20438;-78
2023/05/13 06:23:50;;;;;;;5.90;5.40;;;12.80;99.90;;;;;;5037347;28;20887;-78
2023/05/13 06:26:45;;;;;;;5.30;4.80;;;13.20;99.90;;;;;;5051388;28;20458;-78
2023/05/13 06:29:22;;;;;;;5.20;4.80;;;11.60;99.90;;;;;;5051064;28;20496;-78
2023/05/13 06:32:04;;;;;;;5.25;4.85;;;11.60;99.90;;;;;;5052556;28;20867;-78
2023/05/13 06:34:32;;;;;;;4.80;4.40;;;11.90;99.90;;;;;;5041492;28;20453;-77
2023/05/13 06:37:00;;;;;;;5.70;5.20;;;11.70;99.90;;;;;;5033201;28;20394;-78
2023/05/13 06:39:26;;;;;;;5.00;4.60;;;14.70;99.90;;;;;;5033747;28;20394;-78
2023/05/13 06:41:55;;;;;;;5.60;4.17;;;11.80;99.90;;;;;;5032991;28;20394;-78
2023/05/13 06:44:26;;;;;;;4.45;4.15;;;12.10;99.90;;;;;;5052560;28;20396;-78
2023/05/13 06:46:59;;;;;;;7.35;4.40;;;11.20;99.90;;;;;;5053672;28;20415;-77
2023/05/13 06:49:25;;;;;;;5.10;4.60;;;14.40;99.90;;;;;;5052894;28;20869;-78
2023/05/13 06:51:56;;;;;;;5.10;4.20;;;11.90;99.90;;;;;;5050963;28;20558;-78
2023/05/13 06:54:31;;;;;;;5.32;4.93;;;11.90;99.90;;;;;;5050548;28;20381;-77
2023/05/13 06:57:19;;;;;;;4.97;4.57;;;12.10;99.90;;;;;;5050757;28;20377;-77
2023/05/13 06:59:44;;;;;;;4.85;4.40;;;13.60;99.90;;;;;;5032088;28;20387;-77
2023/05/13 07:02:10;;;;;;;6.03;4.60;;;11.90;99.90;;;;;;5032194;28;20433;-77
2023/05/13 07:04:36;;;;;;;5.50;5.10;;;13.70;99.90;;;;;;5035385;28;20405;-77
2023/05/13 07:07:04;;;;;;;6.00;5.50;;;13.70;99.90;;;;;;5050316;28;20405;-77
2023/05/13 07:09:31;;;;;;;4.82;4.50;;;13.20;99.90;;;;;;5051030;28;20474;-77
2023/05/13 07:11:57;;;;;;;5.82;5.30;;;13.60;99.90;;;;;;5051962;28;20381;-80
2023/05/13 07:14:24;;;;;;;4.70;4.30;;;12.20;99.90;;;;;;5055866;28;20453;-81
2023/05/13 07:16:50;;;;;;;5.15;4.65;;;12.20;99.90;;;;;;5053045;28;20460;-83
2023/05/13 07:19:16;;;;;;;6.10;5.60;;;12.20;99.90;;;;;;5038059;28;20431;-81
2023/05/13 07:21:41;;;;;;;5.60;5.10;;;12.40;99.90;;;;;;5049207;28;20743;-81
2023/05/13 07:24:07;;;;;;;5.70;5.20;;;12.50;99.90;;;;;;5051898;28;20385;-80
2023/05/13 07:26:32;;;;;;;6.15;4.93;;;12.60;99.90;;;;;;5054143;28;20753;-80
2023/05/13 07:28:58;;;;;;;6.40;5.90;;;12.70;99.90;;;;;;5053876;28;20725;-80
2023/05/13 07:31:24;;;;;;;6.30;5.70;;;12.70;99.90;;;;;;5054481;28;20437;-81
2023/05/13 07:33:50;;;;;;;6.10;5.60;;;12.80;99.90;;;;;;5052749;28;20385;-80
2023/05/13 07:36:15;;;;;;;6.55;5.95;;;12.50;99.90;;;;;;5052756;28;20385;-80
2023/05/13 07:38:41;;;;;;;6.30;5.80;;;12.60;99.90;;;;;;5054146;28;20791;-80
2023/05/13 07:41:06;;;;;;;5.87;5.43;;;12.60;99.90;;;;;;5052692;28;20512;-81
2023/05/13 07:43:33;;;;;;;5.60;5.10;;;12.60;99.90;;;;;;5054755;28;20484;-81
2023/05/13 07:45:59;;;;;;;6.47;5.88;;;12.80;99.90;;;;;;5060124;28;20405;-80
2023/05/13 07:48:27;;;;;;;6.30;5.70;;;12.80;99.90;;;;;;5053366;28;21120;-80
2023/05/13 07:50:52;;;;;;;8.10;5.80;;;12.80;99.90;;;;;;5053495;28;20476;-80
2023/05/13 07:53:18;;;;;;;5.53;5.07;;;12.90;99.90;;;;;;5054612;28;20478;-81
2023/05/13 07:55:44;;;;;;;5.90;5.40;;;12.90;99.90;;;;;;5053918;28;20836;-82
2023/05/13 07:58:09;;;;;;;5.90;5.40;;;12.90;99.90;;;;;;5051380;28;20831;-80
2023/05/13 08:00:35;;;;;;;5.20;4.80;;;13.10;99.90;;;;;;5053589;28;20652;-80
2023/05/13 08:03:01;;;;;;;5.53;5.03;;;13.10;99.90;;;;;;5053522;28;20480;-81
2023/05/13 08:05:26;;;;;;;5.22;4.72;;;13.20;99.90;;;;;;5053079;28;20484;-81
2023/05/13 08:07:52;;;;;;;5.00;4.60;;;13.00;99.90;;;;;;5053042;28;20393;-81
2023/05/13 08:10:17;;;;;;;5.60;5.20;;;12.90;99.90;;;;;;5052941;28;20381;-81
2023/05/13 08:12:49;;;;;;;6.22;4.65;;;12.90;99.90;;;;;;5053851;28;21041;-81
2023/05/13 08:15:15;;;;;;;4.75;4.35;;;13.10;99.90;;;;;;5052496;28;20392;-82
2023/05/13 08:17:41;;;;;;;5.13;4.72;;;13.40;99.90;;;;;;5051877;28;20443;-82
2023/05/13 08:20:07;;;;;;;5.38;4.97;;;13.50;99.90;;;;;;5053403;28;20472;-82
2023/05/13 08:22:33;;;;;;;5.20;4.80;;;13.50;99.90;;;;;;5050029;28;20402;-82
2023/05/13 08:24:59;;;;;;;5.10;4.70;;;13.40;99.90;;;;;;5034409;28;20402;-81
2023/05/13 08:27:25;;;;;;;5.30;4.80;;;13.60;99.90;;;;;;5033792;28;20383;-81
2023/05/13 08:29:51;;;;;;;5.03;4.57;;;13.80;99.90;;;;;;5034492;28;20730;-81
2023/05/13 08:32:17;;;;;;;5.37;4.50;;;14.10;99.90;;;;;;5034683;28;20390;-82
2023/05/13 08:34:43;;;;;;;4.68;4.28;;;14.20;99.90;;;;;;5037376;28;20379;-81
2023/05/13 08:37:08;;;;;;;4.30;4.00;;;14.10;99.90;;;;;;5036599;28;20437;-81
2023/05/13 08:39:34;;;;;;;4.20;3.90;;;14.00;99.90;;;;;;5055148;28;20389;-82
2023/05/13 08:42:02;;;;;;;4.45;4.15;;;13.80;99.90;;;;;;5055029;28;20406;-82
2023/05/13 08:44:30;;;;;;;4.40;4.10;;;13.90;99.90;;;;;;5057155;28;20385;-81
2023/05/13 08:47:11;;;;;;;4.28;3.90;;;13.90;99.90;;;;;;5056788;28;20386;-81
2023/05/13 08:49:38;;;;;;;4.10;3.80;;;14.20;99.90;;;;;;5055262;28;20457;-80
2023/05/13 08:52:03;;;;;;;4.20;3.90;;;14.50;99.90;;;;;;5055446;28;20888;-83
2023/05/13 08:54:30;;;;;;;4.30;3.80;;;14.30;99.90;;;;;;5055797;28;20405;-81
2023/05/13 08:56:55;;;;;;;4.78;3.72;;;14.30;99.90;;;;;;5053401;28;20385;-81
2023/05/13 08:59:22;;;;;;;4.30;3.90;;;14.20;99.90;;;;;;5058182;28;20444;-81
2023/05/13 09:01:49;;;;;;;4.35;3.95;;;14.20;99.90;;;;;;5057346;28;20393;-81
2023/05/13 09:04:16;;;;;;;3.95;3.65;;;14.30;99.90;;;;;;5052481;28;20477;-81
2023/05/13 09:06:42;;;;;;;4.28;3.97;;;14.30;99.90;;;;;;5050771;28;20406;-81
2023/05/13 09:09:08;;;;;;;3.93;3.63;;;14.20;99.90;;;;;;5056588;28;20452;-81
2023/05/13 09:11:34;;;;;;;3.42;3.22;;;14.20;99.90;;;;;;5055821;28;20389;-81
2023/05/13 09:14:02;;;;;;;3.50;3.20;;;14.40;99.90;;;;;;5055954;28;20374;-81
2023/05/13 09:16:28;;;;;;;3.78;3.40;;;14.60;99.90;;;;;;5058286;28;20382;-81
2023/05/13 09:19:03;;;;;;;4.00;3.60;;;14.40;99.90;;;;;;5058249;28;20388;-81
2023/05/13 09:21:30;;;;;;;3.70;3.40;;;14.40;99.90;;;;;;5059271;28;20456;-82
2023/05/13 09:24:09;;;;;;;3.97;3.50;;;14.60;99.90;;;;;;5058603;28;20396;-83
2023/05/13 09:26:35;;;;;;;3.70;3.40;;;14.70;99.90;;;;;;5060604;28;20420;-82
2023/05/13 09:29:25;;;;;;;3.70;3.40;;;14.90;99.90;;;;;;5080481;28;20379;-82
2023/05/13 09:31:53;;;;;;;3.40;3.10;;;14.70;99.90;;;;;;5075013;28;20415;-83
2023/05/13 09:34:30;;;;;;;3.20;2.90;;;14.40;99.90;;;;;;5075113;28;20388;-82
2023/05/13 09:37:05;;;;;;;3.00;2.80;;;14.30;99.90;;;;;;5068092;28;20386;-83
2023/05/13 09:39:40;;;;;;;3.60;3.30;;;14.20;99.90;;;;;;5071476;28;20435;-81
2023/05/13 09:42:13;;;;;;;3.50;3.30;;;14.10;99.90;;;;;;5059045;28;20748;-83
2023/05/13 09:44:39;;;;;;;3.90;3.15;;;14.30;99.90;;;;;;5058068;28;20831;-84
2023/05/13 09:47:04;;;;;;;4.80;4.40;;;14.40;99.90;;;;;;5055828;28;20421;-83
2023/05/13 09:49:30;;;;;;;3.33;3.03;;;14.50;99.90;;;;;;5075063;23;20445;-79
2023/05/13 09:51:56;;;;;;;3.58;3.28;;;14.50;99.90;;;;;;5066127;28;20896;-78
2023/05/13 09:54:21;;;;;;;3.50;3.20;;;14.60;99.90;;;;;;5065865;28;20389;-78
2023/05/13 09:56:47;;;;;;;3.40;3.10;;;14.60;99.90;;;;;;5063731;28;20385;-79
2023/05/13 09:59:14;;;;;;;2.60;2.40;;;14.80;99.90;;;;;;5063213;28;20382;-78
2023/05/13 10:01:41;;;;;;;2.60;2.40;;;14.70;99.90;;;;;;5042706;28;20480;-79
2023/05/13 10:04:07;;;;;;;2.65;2.45;;;15.00;99.90;;;;;;5042515;28;20830;-79
2023/05/13 10:06:34;;;;;;;2.90;2.70;;;15.20;99.90;;;;;;5045913;28;20413;-79
2023/05/13 10:09:03;;;;;;;3.28;2.58;;;15.20;99.90;;;;;;5044864;28;20379;-79
2023/05/13 10:11:31;;;;;;;3.30;2.60;;;15.20;99.90;;;;;;5041499;28;20390;-79
2023/05/13 10:13:59;;;;;;;3.20;2.80;;;15.30;99.90;;;;;;5048103;28;20400;-80
2023/05/13 10:16:26;;;;;;;2.50;2.30;;;15.10;99.90;;;;;;5043615;28;20912;-80
2023/05/13 10:18:52;;;;;;;2.10;2.00;;;14.70;99.90;;;;;;5042317;28;20393;-79
2023/05/13 10:21:18;;;;;;;2.40;2.20;;;14.80;99.90;;;;;;5042731;28;20397;-79
2023/05/13 10:23:46;;;;;;;2.03;1.92;;;14.90;99.90;;;;;;5043849;28;20434;-79
2023/05/13 10:26:12;;;;;;;2.20;2.10;;;15.00;99.90;;;;;;5041796;28;20407;-80
2023/05/13 10:28:38;;;;;;;2.03;1.92;;;15.20;99.90;;;;;;5047393;28;20397;-80
2023/05/13 10:31:04;;;;;;;2.00;1.80;;;15.00;99.90;;;;;;5044623;28;20431;-79
2023/05/13 10:33:29;;;;;;;2.07;1.97;;;15.20;99.90;;;;;;5045176;28;20888;-80
2023/05/13 10:36:06;;;;;;;1.80;1.70;;;15.40;99.90;;;;;;5043263;28;20387;-80
2023/05/13 10:38:52;;;;;;;1.67;1.58;;;15.50;99.90;;;;;;5041573;28;20387;-80
2023/05/13 10:41:48;;;;;;;2.10;1.70;;;15.40;99.90;;;;;;5074682;28;20438;-80
2023/05/13 10:44:14;;;;;;;2.17;2.08;;;15.70;99.90;;;;;;5056341;28;20424;-80
2023/05/13 10:46:42;;;;;;;2.40;2.20;;;15.70;99.90;;;;;;5042384;28;20412;-79
2023/05/13 10:49:14;;;;;;;2.20;2.10;;;15.50;99.90;;;;;;5043152;28;20418;-79
2023/05/13 10:51:45;;;;;;;2.60;2.40;;;15.10;99.90;;;;;;5045598;28;20382;-79
2023/05/13 10:54:19;;;;;;;2.65;2.45;;;14.70;99.90;;;;;;5049357;28;20389;-79
2023/05/13 10:56:45;;;;;;;2.40;2.20;;;14.60;99.90;;;;;;5046902;28;20431;-79
2023/05/13 10:59:11;;;;;;;2.75;2.55;;;14.70;99.90;;;;;;5046235;28;20476;-79
2023/05/13 11:01:42;;;;;;;3.33;2.70;;;14.70;99.90;;;;;;5042058;28;20381;-80
2023/05/13 11:04:12;;;;;;;2.85;2.65;;;14.50;99.90;;;;;;5042964;28;20391;-79
2023/05/13 11:06:40;;;;;;;3.30;3.00;;;14.40;99.90;;;;;;5041157;28;20457;-79
2023/05/13 11:09:07;;;;;;;3.70;3.50;;;14.20;99.90;;;;;;5040120;28;20405;-80
2023/05/13 11:11:34;;;;;;;3.07;2.87;;;14.20;99.90;;;;;;5041836;28;20468;-79
2023/05/13 11:14:19;;;;;;;3.30;3.00;;;14.40;99.90;;;;;;5042189;28;20727;-80
2023/05/13 11:17:05;;;;;;;3.28;3.08;;;14.60;99.90;;;;;;5041009;28;20393;-79
2023/05/13 11:19:34;;;;;;;3.50;3.20;;;14.80;99.90;;;;;;5035918;28;20400;-80
2023/05/13 11:22:13;;;;;;;3.38;3.10;;;14.60;99.90;;;;;;5041780;28;20395;-80
2023/05/13 11:24:40;;;;;;;3.30;3.10;;;14.60;99.90;;;;;;5041906;28;20391;-80
2023/05/13 11:27:16;;;;;;;3.08;2.88;;;14.50;99.90;;;;;;5040936;28;20451;-79
2023/05/13 11:29:50;;;;;;;3.40;3.10;;;14.70;99.90;;;;;;5040964;28;20383;-79
2023/05/13 11:32:44;;;;;;;3.13;2.83;;;15.10;99.90;;;;;;5040458;28;20387;-80
2023/05/13 11:35:10;;;;;;;3.22;3.03;;;15.30;99.90;;;;;;5044505;28;20389;-80
2023/05/13 11:37:42;;;;;;;3.00;2.80;;;15.70;99.90;;;;;;5041853;28;20391;-80
2023/05/13 11:40:09;;;;;;;2.90;2.70;;;15.80;99.90;;;;;;5040624;28;20389;-80
2023/05/13 11:42:36;;;;;;;2.95;2.70;;;16.30;99.90;;;;;;5041878;28;20398;-80
2023/05/13 11:45:02;;;;;;;3.00;2.70;;;16.40;99.90;;;;;;5042847;28;20412;-80
2023/05/13 11:47:28;;;;;;;3.22;2.92;;;16.60;99.90;;;;;;5048455;28;20791;-80
2023/05/13 11:49:54;;;;;;;2.80;2.60;;;16.60;71.90;;;;;;5053257;28;20393;-80
2023/05/13 11:52:20;;;;;;;2.95;2.65;;;17.00;99.90;;;;;;5057346;28;20379;-80
2023/05/13 11:54:49;;;;;;;3.08;2.88;;;17.00;99.90;;;;;;5057857;28;20893;-80
2023/05/13 11:57:31;;;;;;;2.92;2.70;;;17.10;99.90;;;;;;5052490;28;20439;-80
2023/05/13 12:00:03;;;;;;;2.90;2.30;;;17.40;99.90;;;;;;5033047;28;20391;-81
2023/05/13 12:02:35;;;;;;;2.40;2.20;;;18.50;36.90;;;;;;5037169;28;20395;-81
2023/05/13 12:05:03;;;;;;;2.10;1.90;;;18.30;99.90;;;;;;5042414;28;20405;-81
2023/05/13 12:07:29;;;;;;;2.20;1.70;;;17.40;99.90;;;;;;5043710;28;20383;-80
2023/05/13 12:09:57;;;;;;;2.53;2.33;;;17.10;99.90;;;;;;5044346;28;20387;-80
2023/05/13 12:12:24;;;;;;;1.80;1.70;;;17.10;68.80;;;;;;5051297;28;20468;-80
2023/05/13 12:14:50;;;;;;;2.23;2.10;;;16.70;99.90;;;;;;5056337;28;20807;-80
2023/05/13 12:17:17;;;;;;;1.70;1.60;;;16.30;99.90;;;;;;5047993;28;20464;-81
2023/05/13 12:20:05;;;;;;;1.58;1.48;;;16.50;99.90;;;;;;5045618;28;20402;-80
2023/05/13 12:22:31;;;;;;;2.65;1.80;;;16.20;99.20;;;;;;5047105;28;20382;-80
2023/05/13 12:24:59;;;;;;;1.80;1.70;;;15.90;99.90;;;;;;5046728;28;20471;-80
2023/05/13 12:27:25;;;;;;;1.50;1.40;;;15.70;99.90;;;;;;5045052;28;20420;-80
2023/05/13 12:29:54;;;;;;;2.00;1.40;;;15.40;99.90;;;;;;5045550;28;20797;-80
2023/05/13 12:32:19;;;;;;;1.80;1.70;;;15.60;99.90;;;;;;5046609;28;20377;-79
2023/05/13 12:34:48;;;;;;;2.00;1.90;;;15.60;99.90;;;;;;5044555;28;20807;-79
2023/05/13 12:37:14;;;;;;;1.80;1.70;;;15.40;99.90;;;;;;5043807;28;20486;-79
2023/05/13 12:39:41;;;;;;;1.60;1.50;;;15.50;99.90;;;;;;5043943;28;20935;-79
2023/05/13 12:42:17;;;;;;;1.90;1.80;;;15.60;72.30;;;;;;5044404;28;20474;-79
2023/05/13 12:44:44;;;;;;;1.90;1.80;;;15.50;95.50;;;;;;5048965;28;20523;-79
2023/05/13 12:47:11;;;;;;;1.58;1.48;;;15.80;99.90;;;;;;5047999;28;20480;-79
2023/05/13 12:49:54;;;;;;;1.83;1.73;;;15.60;86.40;;;;;;5047965;28;20735;-80
2023/05/13 12:52:20;;;;;;;2.20;2.10;;;15.70;67.70;;;;;;5047035;28;20383;-79
2023/05/13 12:54:46;;;;;;;2.00;1.90;;;15.70;99.90;;;;;;5045442;28;20395;-79
2023/05/13 12:57:15;;;;;;;1.90;1.80;;;15.40;99.90;;;;;;5052720;28;20472;-80
2023/05/13 12:59:41;;;;;;;2.10;2.00;;;15.50;99.90;;;;;;5054504;28;20388;-80
2023/05/13 13:02:07;;;;;;;2.60;1.90;;;15.40;99.90;;;;;;5055696;28;20386;-79
2023/05/13 13:04:32;;;;;;;2.40;2.20;;;15.40;99.90;;;;;;5050761;28;20392;-79
2023/05/13 13:06:58;;;;;;;2.08;1.98;;;15.30;99.90;;;;;;5035194;28;20422;-80
2023/05/13 13:09:23;;;;;;;2.30;2.20;;;15.50;99.90;;;;;;5041447;28;20391;-80
2023/05/13 13:11:49;;;;;;;2.27;2.10;;;15.60;99.90;;;;;;5045233;28;20838;-79
2023/05/13 13:14:14;;;;;;;1.90;1.80;;;15.70;99.90;;;;;;5044883;28;20460;-80
2023/05/13 13:16:40;;;;;;;1.80;1.70;;;15.90;99.90;;;;;;5044570;28;20400;-80
2023/05/13 13:19:05;;;;;;;2.00;1.90;;;16.00;99.90;;;;;;5042047;28;20947;-80
2023/05/13 13:21:31;;;;;;;2.40;2.20;;;16.10;87.70;;;;;;5043156;28;20908;-80
2023/05/13 13:23:56;;;;;;;2.30;2.10;;;16.30;99.90;;;;;;5044791;28;20389;-80
2023/05/13 13:26:22;;;;;;;1.60;1.50;;;16.40;99.20;;;;;;5044836;28;20401;-79
2023/05/13 13:28:48;;;;;;;1.88;1.77;;;16.50;30.60;;;;;;5043920;28;20387;-79
2023/05/13 13:31:13;;;;;;;1.90;1.80;;;16.60;56.00;;;;;;5045029;28;20374;-80
2023/05/13 13:33:39;;;;;;;2.60;1.90;;;16.70;58.10;;;;;;5045192;28;20379;-79
2023/05/13 13:36:04;;;;;;;1.90;1.80;;;16.90;36.90;;;;;;5043489;28;20462;-80
2023/05/13 13:38:30;;;;;;;1.80;1.70;;;17.00;27.30;;;;;;5043798;28;20478;-80
2023/05/13 13:40:55;;;;;;;1.90;1.80;;;16.90;52.70;;;;;;5045958;28;20417;-79
2023/05/13 13:43:21;;;;;;;2.30;1.90;;;16.90;24.00;;;;;;5044625;28;20446;-80